createdAt,value
2022-10-24T00:01:41.193Z,71.64
2022-10-24T00:03:44.204Z,71.38
2022-10-24T00:05:49.292Z,71.66
2022-10-24T00:07:51.948Z,71.99
2022-10-24T00:09:54.789Z,71.42
2022-10-24T00:11:57.563Z,71.48
2022-10-24T00:14:00.362Z,71.45
2022-10-24T00:16:03.065Z,72.54
2022-10-24T00:18:05.810Z,71.82
2022-10-24T00:20:09.568Z,72.48
2022-10-24T00:22:13.536Z,72.71
2022-10-24T00:24:16.200Z,72.21
2022-10-24T00:26:18.866Z,72.82
2022-10-24T00:28:21.480Z,73.09
2022-10-24T00:30:24.130Z,73.67
2022-10-24T00:32:26.710Z,73.29
2022-10-24T00:34:29.397Z,73.81
2022-10-24T00:36:32.215Z,73.76
2022-10-24T00:38:36.180Z,74.71
2022-10-24T00:40:38.972Z,74.18
2022-10-24T00:42:41.742Z,73.96
2022-10-24T00:44:44.701Z,74.08
2022-10-24T00:46:51.013Z,74.11
2022-10-24T00:48:55.941Z,73.97
2022-10-24T00:51:02.622Z,74.42
2022-10-24T00:53:05.246Z,74.17
2022-10-24T00:55:11.812Z,74.87
2022-10-24T00:57:20.986Z,74.96
2022-10-24T00:59:24.648Z,75.67
2022-10-24T01:01:27.374Z,76.02
2022-10-24T01:03:29.991Z,75.73
2022-10-24T01:05:38.468Z,75.61
2022-10-24T01:07:59.410Z,75.78
2022-10-24T01:10:18.593Z,76.61
2022-10-24T01:12:31.952Z,76.41
2022-10-24T01:14:44.924Z,77.11
2022-10-24T01:16:52.458Z,76.92
2022-10-24T01:19:02.245Z,76.80
2022-10-24T01:21:14.856Z,77.58
2022-10-24T01:23:49.622Z,77.19
2022-10-24T01:26:05.793Z,77.14
2022-10-24T01:28:12.408Z,77.06
2022-10-24T01:30:18.292Z,77.57
2022-10-24T01:32:30.679Z,77.68
2022-10-24T01:34:39.692Z,77.45
2022-10-24T01:36:48.428Z,77.57
2022-10-24T01:38:57.896Z,78.37
2022-10-24T01:41:04.991Z,78.40
2022-10-24T01:43:13.102Z,78.45
2022-10-24T01:45:22.881Z,79.51
2022-10-24T01:47:29.720Z,80.85
2022-10-24T01:49:37.025Z,82.37
2022-10-24T01:51:41.647Z,83.15
2022-10-24T01:53:45.742Z,83.96
2022-10-24T01:55:49.614Z,84.33
2022-10-24T01:57:52.201Z,84.79
2022-10-24T01:59:55.268Z,85.02
2022-10-24T02:02:03.975Z,85.51
2022-10-24T02:04:12.243Z,86.13
2022-10-24T02:06:20.287Z,86.90
2022-10-24T02:08:29.782Z,87.00
2022-10-24T02:10:35.742Z,87.22
2022-10-24T02:12:44.426Z,87.63
2022-10-24T02:14:51.199Z,88.12
2022-10-24T02:16:54.008Z,88.04
2022-10-24T02:18:58.867Z,88.48
2022-10-24T02:21:09.602Z,89.08
2022-10-24T02:23:21.091Z,89.13
2022-10-24T02:25:27.907Z,89.46
2022-10-24T02:27:34.582Z,89.26
2022-10-24T02:29:43.059Z,89.70
2022-10-24T02:31:55.451Z,90.55
2022-10-24T02:33:59.885Z,90.97
2022-10-24T02:36:05.412Z,91.13
2022-10-24T02:38:15.323Z,90.94
2022-10-24T02:40:21.762Z,90.69
2022-10-24T02:42:25.336Z,91.52
2022-10-24T02:44:29.976Z,92.79
2022-10-24T02:46:33.691Z,92.35
2022-10-24T02:48:41.103Z,92.07
2022-10-24T02:50:45.889Z,92.45
2022-10-24T02:52:49.047Z,91.85
2022-10-24T02:54:52.379Z,92.94
2022-10-24T02:57:00.625Z,93.49
2022-10-24T02:59:03.306Z,94.61
2022-10-24T03:01:06.140Z,94.81
2022-10-24T03:03:09.082Z,95.59
2022-10-24T03:05:11.748Z,96.46
2022-10-24T03:07:16.307Z,97.28
2022-10-24T03:09:19.029Z,97.13
2022-10-24T03:11:21.856Z,97.84
2022-10-24T03:13:24.585Z,97.51
2022-10-24T03:15:27.411Z,97.78
2022-10-24T03:17:30.036Z,98.49
2022-10-24T03:19:32.797Z,99.09
2022-10-24T03:21:35.514Z,98.87
2022-10-24T03:23:39.476Z,100.00
2022-10-24T03:25:42.043Z,100.00
2022-10-24T03:27:44.899Z,100.00
2022-10-24T03:29:49.154Z,100.00
2022-10-24T03:31:53.369Z,100.00
2022-10-24T03:33:55.988Z,100.00
2022-10-24T03:35:58.803Z,100.00
2022-10-24T03:38:01.487Z,100.00
2022-10-24T03:40:06.484Z,100.00
2022-10-24T03:42:09.113Z,100.00
2022-10-24T03:44:11.809Z,100.00
2022-10-24T03:46:14.445Z,100.00
2022-10-24T03:48:17.249Z,100.00
2022-10-24T03:50:20.316Z,100.00
2022-10-24T03:52:23.154Z,100.00
2022-10-24T03:54:25.817Z,100.00
2022-10-24T03:56:29.790Z,100.00
2022-10-24T03:58:32.365Z,100.00
2022-10-24T04:00:39.395Z,100.00
2022-10-24T04:02:43.913Z,100.00
2022-10-24T04:04:46.700Z,100.00
2022-10-24T04:06:49.351Z,100.00
2022-10-24T04:08:51.942Z,100.00
2022-10-24T04:10:54.607Z,100.00
2022-10-24T04:12:58.548Z,100.00
2022-10-24T04:15:04.122Z,100.00
2022-10-24T04:17:07.601Z,100.00
2022-10-24T04:19:10.712Z,100.00
2022-10-24T04:21:15.097Z,100.00
2022-10-24T04:23:20.559Z,100.00
2022-10-24T04:25:23.170Z,100.00
2022-10-24T04:27:26.004Z,100.00
2022-10-24T04:29:29.945Z,100.00
2022-10-24T04:31:32.703Z,100.00
2022-10-24T04:33:36.271Z,100.00
2022-10-24T04:35:38.963Z,100.00
2022-10-24T04:37:41.616Z,100.00
2022-10-24T04:39:44.229Z,100.00
2022-10-24T04:41:47.361Z,100.00
2022-10-24T04:43:49.978Z,100.00
2022-10-24T04:45:54.276Z,100.00
2022-10-24T04:47:57.702Z,100.00
2022-10-24T04:50:00.334Z,100.00
2022-10-24T04:52:02.890Z,100.00
2022-10-24T04:54:07.549Z,100.00
2022-10-24T04:56:10.187Z,100.00
2022-10-24T04:58:13.067Z,100.00
2022-10-24T05:00:16.498Z,100.00
2022-10-24T05:02:20.561Z,100.00
2022-10-24T05:04:23.292Z,100.00
2022-10-24T05:06:25.962Z,100.00
2022-10-24T05:08:28.648Z,100.00
2022-10-24T05:10:31.730Z,100.00
2022-10-24T05:12:34.305Z,100.00
2022-10-24T05:14:36.938Z,100.00
2022-10-24T05:16:39.771Z,100.00
2022-10-24T05:18:43.706Z,100.00
2022-10-24T05:20:47.290Z,100.00
2022-10-24T05:22:49.964Z,100.00
2022-10-24T05:24:53.015Z,100.00
2022-10-24T05:26:55.580Z,100.00
2022-10-24T05:28:58.227Z,100.00
2022-10-24T05:31:00.930Z,100.00
2022-10-24T05:33:03.598Z,100.00
2022-10-24T05:35:09.088Z,100.00
2022-10-24T05:37:11.720Z,98.93
2022-10-24T05:39:14.431Z,98.23
2022-10-24T05:41:17.102Z,97.32
2022-10-24T05:43:19.877Z,97.10
2022-10-24T05:45:22.708Z,95.15
2022-10-24T05:47:26.951Z,94.36
2022-10-24T05:49:31.731Z,94.29
2022-10-24T05:51:35.753Z,92.76
2022-10-24T05:53:38.484Z,91.99
2022-10-24T05:55:41.402Z,92.11
2022-10-24T05:57:44.300Z,91.81
2022-10-24T05:59:48.037Z,90.74
2022-10-24T06:01:50.746Z,91.64
2022-10-24T06:03:53.563Z,91.83
2022-10-24T06:05:56.167Z,92.50
2022-10-24T06:08:00.939Z,92.69
2022-10-24T06:10:03.863Z,92.24
2022-10-24T06:12:08.338Z,93.10
2022-10-24T06:14:11.147Z,94.17
2022-10-24T06:16:13.900Z,93.73
2022-10-24T06:18:16.552Z,94.26
2022-10-24T06:20:19.385Z,94.01
2022-10-24T06:22:24.016Z,93.37
2022-10-24T06:24:28.016Z,94.40
2022-10-24T06:26:30.668Z,96.40
2022-10-24T06:28:33.309Z,98.73
2022-10-24T06:30:36.674Z,100.00
2022-10-24T06:32:42.202Z,100.00
2022-10-24T06:34:47.157Z,100.00
2022-10-24T06:36:49.859Z,100.00
2022-10-24T06:38:52.472Z,100.00
2022-10-24T06:40:56.408Z,100.00
2022-10-24T06:42:59.286Z,100.00
2022-10-24T06:45:01.882Z,100.00
2022-10-24T06:47:04.510Z,100.00
2022-10-24T06:49:07.637Z,100.00
2022-10-24T06:51:10.670Z,100.00
2022-10-24T06:53:13.288Z,100.00
2022-10-24T06:55:16.101Z,100.00
2022-10-24T06:57:20.141Z,100.00
2022-10-24T06:59:22.868Z,100.00
2022-10-24T07:01:27.798Z,100.00
2022-10-24T07:03:30.489Z,100.00
2022-10-24T07:05:33.239Z,100.00
2022-10-24T07:07:36.030Z,100.00
2022-10-24T07:09:38.652Z,100.00
2022-10-24T07:11:41.382Z,100.00
2022-10-24T07:13:45.525Z,100.00
2022-10-24T07:15:48.150Z,100.00
2022-10-24T07:17:50.864Z,100.00
2022-10-24T07:19:54.449Z,100.00
2022-10-24T07:21:57.082Z,100.00
2022-10-24T07:24:00.852Z,100.00
2022-10-24T07:26:05.361Z,100.00
2022-10-24T07:28:08.677Z,100.00
2022-10-24T07:30:18.994Z,100.00
2022-10-24T07:32:21.985Z,100.00
2022-10-24T07:34:24.592Z,100.00
2022-10-24T07:36:30.454Z,100.00
2022-10-24T07:38:33.196Z,100.00
2022-10-24T07:40:36.452Z,100.00
2022-10-24T07:42:39.087Z,100.00
2022-10-24T07:44:41.791Z,100.00
2022-10-24T07:46:45.779Z,100.00
2022-10-24T07:48:50.573Z,100.00
2022-10-24T07:50:54.265Z,100.00
2022-10-24T07:52:56.900Z,100.00
2022-10-24T07:54:59.591Z,100.00
2022-10-24T07:57:02.223Z,100.00
2022-10-24T07:59:09.560Z,100.00
2022-10-24T08:01:18.045Z,100.00
2022-10-24T08:03:22.084Z,100.00
2022-10-24T08:05:24.728Z,100.00
2022-10-24T08:07:27.353Z,100.00
2022-10-24T08:09:29.959Z,100.00
2022-10-24T08:11:32.912Z,100.00
2022-10-24T08:13:35.672Z,100.00
2022-10-24T08:15:38.886Z,100.00
2022-10-24T08:17:41.602Z,100.00
2022-10-24T08:19:45.610Z,100.00
2022-10-24T08:21:50.215Z,100.00
2022-10-24T08:23:55.763Z,100.00
2022-10-24T08:25:58.454Z,100.00
2022-10-24T08:28:02.881Z,100.00
2022-10-24T08:30:09.359Z,100.00
2022-10-24T08:32:11.974Z,100.00
2022-10-24T08:34:14.612Z,100.00
2022-10-24T08:36:23.661Z,100.00
2022-10-24T08:38:26.558Z,100.00
2022-10-24T08:40:29.319Z,100.00
2022-10-24T08:42:31.915Z,100.00
2022-10-24T08:44:37.743Z,100.00
2022-10-24T08:46:48.979Z,100.00
2022-10-24T08:48:59.522Z,100.00
2022-10-24T08:51:10.751Z,100.00
2022-10-24T08:53:20.678Z,100.00
2022-10-24T08:55:44.376Z,100.00
2022-10-24T08:57:54.285Z,100.00
2022-10-24T09:00:01.015Z,100.00
2022-10-24T09:02:09.035Z,100.00
2022-10-24T09:04:20.342Z,100.00
2022-10-24T09:06:25.931Z,100.00
2022-10-24T09:08:36.981Z,100.00
2022-10-24T09:10:48.027Z,100.00
2022-10-24T09:12:50.666Z,100.00
2022-10-24T09:14:58.624Z,100.00
2022-10-24T09:17:10.897Z,100.00
2022-10-24T09:19:16.427Z,100.00
2022-10-24T09:21:19.645Z,100.00
2022-10-24T09:23:25.010Z,100.00
2022-10-24T09:25:33.276Z,100.00
2022-10-24T09:27:38.114Z,100.00
2022-10-24T09:29:41.053Z,100.00
2022-10-24T09:31:43.694Z,100.00
2022-10-24T09:33:47.522Z,100.00
2022-10-24T09:35:52.103Z,100.00
2022-10-24T09:37:56.620Z,100.00
2022-10-24T09:40:08.823Z,100.00
2022-10-24T09:42:22.101Z,100.00
2022-10-24T09:44:32.573Z,100.00
2022-10-24T09:46:40.673Z,100.00
2022-10-24T09:48:50.937Z,100.00
2022-10-24T09:50:54.913Z,100.00
2022-10-24T09:53:00.307Z,100.00
2022-10-24T09:55:17.698Z,100.00
2022-10-24T09:57:25.774Z,100.00
2022-10-24T09:59:42.152Z,100.00
2022-10-24T10:01:45.633Z,100.00
2022-10-24T10:04:07.604Z,100.00
2022-10-24T10:06:18.260Z,100.00
2022-10-24T10:08:23.066Z,100.00
2022-10-24T10:10:32.519Z,100.00
2022-10-24T10:12:38.906Z,100.00
2022-10-24T10:14:42.767Z,100.00
2022-10-24T10:16:45.509Z,100.00
2022-10-24T10:18:48.603Z,100.00
2022-10-24T10:21:00.961Z,100.00
2022-10-24T10:23:18.130Z,100.00
2022-10-24T10:25:30.532Z,100.00
2022-10-24T10:27:38.205Z,100.00
2022-10-24T10:29:40.798Z,100.00
2022-10-24T10:31:46.613Z,100.00
2022-10-24T10:34:00.307Z,100.00
2022-10-24T10:36:08.686Z,100.00
2022-10-24T10:38:26.674Z,100.00
2022-10-24T10:40:35.579Z,100.00
2022-10-24T10:42:46.277Z,100.00
2022-10-24T10:45:14.612Z,100.00
2022-10-24T10:47:35.570Z,100.00
2022-10-24T10:49:40.513Z,100.00
2022-10-24T10:51:48.892Z,100.00
2022-10-24T10:54:00.553Z,100.00
2022-10-24T10:56:14.873Z,100.00
2022-10-24T10:58:30.122Z,100.00
2022-10-24T11:00:41.023Z,100.00
2022-10-24T11:03:16.253Z,100.00
2022-10-24T11:05:32.921Z,100.00
2022-10-24T11:07:44.890Z,100.00
2022-10-24T11:09:50.599Z,100.00
2022-10-24T11:12:01.828Z,100.00
2022-10-24T11:14:10.315Z,100.00
2022-10-24T11:16:19.574Z,100.00
2022-10-24T11:18:27.346Z,100.00
2022-10-24T11:20:36.488Z,100.00
2022-10-24T11:22:44.290Z,100.00
2022-10-24T11:24:54.418Z,100.00
2022-10-24T11:27:04.546Z,100.00
2022-10-24T11:29:16.129Z,100.00
2022-10-24T11:31:23.241Z,100.00
2022-10-24T11:33:28.915Z,100.00
2022-10-24T11:35:33.678Z,100.00
2022-10-24T11:37:41.231Z,100.00
2022-10-24T11:39:50.466Z,100.00
2022-10-24T11:42:00.135Z,100.00
2022-10-24T11:44:11.258Z,100.00
2022-10-24T11:46:20.600Z,100.00
2022-10-24T11:48:29.305Z,100.00
2022-10-24T11:50:36.888Z,100.00
2022-10-24T11:52:43.296Z,100.00
2022-10-24T11:54:52.950Z,100.00
2022-10-24T11:56:59.736Z,100.00
2022-10-24T11:59:04.185Z,100.00
2022-10-24T12:01:24.829Z,100.00
2022-10-24T12:03:54.957Z,100.00
2022-10-24T12:06:17.808Z,100.00
2022-10-24T12:08:57.782Z,100.00
2022-10-24T12:11:32.140Z,100.00
2022-10-24T12:13:51.307Z,100.00
2022-10-24T12:16:02.737Z,100.00
2022-10-24T12:18:12.072Z,100.00
2022-10-24T12:20:20.599Z,100.00
2022-10-24T12:22:27.924Z,100.00
2022-10-24T12:24:33.307Z,100.00
2022-10-24T12:26:36.872Z,100.00
2022-10-24T12:28:39.640Z,100.00
2022-10-24T12:30:42.399Z,100.00
2022-10-24T12:32:47.290Z,100.00
2022-10-24T12:35:28.994Z,100.00
2022-10-24T12:37:35.992Z,100.00
2022-10-24T12:39:42.259Z,100.00
2022-10-24T12:41:47.201Z,100.00
2022-10-24T12:43:50.421Z,100.00
2022-10-24T12:45:53.102Z,100.00
2022-10-24T12:48:15.404Z,100.00
2022-10-24T12:50:55.737Z,100.00
2022-10-24T12:53:17.845Z,100.00
2022-10-24T12:55:35.034Z,100.00
2022-10-24T12:57:46.975Z,100.00
2022-10-24T12:59:52.392Z,100.00
2022-10-24T13:02:35.003Z,99.27
2022-10-24T13:04:56.391Z,98.57
2022-10-24T13:07:11.702Z,98.55
2022-10-24T13:09:33.236Z,96.58
2022-10-24T13:11:54.039Z,96.84
2022-10-24T13:14:23.306Z,96.06
2022-10-24T13:16:36.927Z,95.66
2022-10-24T13:18:51.682Z,95.68
2022-10-24T13:21:15.016Z,96.61
2022-10-24T13:23:23.338Z,95.97
2022-10-24T13:25:34.552Z,96.18
2022-10-24T13:27:37.234Z,96.74
2022-10-24T13:30:24.200Z,95.85
2022-10-24T13:32:32.865Z,96.05
2022-10-24T13:34:43.642Z,96.13
2022-10-24T13:36:49.020Z,95.84
2022-10-24T13:38:55.161Z,96.36
2022-10-24T13:40:59.705Z,96.67
2022-10-24T13:43:07.713Z,96.96
2022-10-24T13:45:23.966Z,97.06
2022-10-24T13:47:31.254Z,96.81
2022-10-24T13:49:38.204Z,97.32
2022-10-24T13:51:46.859Z,97.59
2022-10-24T13:53:54.388Z,96.98
2022-10-24T13:55:59.576Z,97.30
2022-10-24T13:58:11.377Z,97.18
2022-10-24T14:00:21.426Z,97.52
2022-10-24T14:02:29.800Z,98.06
2022-10-24T14:04:36.430Z,97.69
2022-10-24T14:06:39.144Z,97.50
2022-10-24T14:08:56.090Z,98.09
2022-10-24T14:11:08.488Z,98.83
2022-10-24T14:13:18.425Z,97.58
2022-10-24T14:15:23.182Z,98.12
2022-10-24T14:17:29.140Z,98.66
2022-10-24T14:19:36.158Z,98.45
2022-10-24T14:21:42.153Z,98.58
2022-10-24T14:23:55.392Z,98.56
2022-10-24T14:26:01.674Z,99.49
2022-10-24T14:28:12.436Z,99.54
2022-10-24T14:30:20.419Z,99.95
2022-10-24T14:32:23.545Z,99.53
2022-10-24T14:34:26.905Z,98.52
2022-10-24T14:36:31.887Z,98.05
2022-10-24T14:38:36.099Z,97.90
2022-10-24T14:40:38.986Z,97.75
2022-10-24T14:42:41.877Z,97.75
2022-10-24T14:44:46.364Z,97.19
2022-10-24T14:47:03.848Z,97.12
2022-10-24T14:49:29.608Z,96.70
2022-10-24T14:51:39.025Z,95.11
2022-10-24T14:53:45.751Z,94.41
2022-10-24T14:55:51.550Z,93.31
2022-10-24T14:57:55.273Z,93.56
2022-10-24T15:00:02.580Z,93.34
2022-10-24T15:02:19.729Z,93.08
2022-10-24T15:04:31.031Z,92.60
2022-10-24T15:06:39.057Z,92.71
2022-10-24T15:08:45.791Z,91.94
2022-10-24T15:10:48.577Z,92.16
2022-10-24T15:12:55.232Z,92.28
2022-10-24T15:15:22.478Z,92.51
2022-10-24T15:17:32.822Z,92.87
2022-10-24T15:19:39.343Z,93.17
2022-10-24T15:21:44.895Z,92.70
2022-10-24T15:23:50.145Z,92.77
2022-10-24T15:26:02.039Z,92.89
2022-10-24T15:28:06.927Z,92.56
2022-10-24T15:30:15.231Z,92.13
2022-10-24T15:32:17.830Z,91.85
2022-10-24T15:34:23.940Z,92.96
2022-10-24T15:36:31.408Z,93.83
2022-10-24T15:38:38.950Z,95.11
2022-10-24T15:40:46.196Z,95.75
2022-10-24T15:42:48.953Z,97.36
2022-10-24T15:44:51.677Z,98.48
2022-10-24T15:46:54.912Z,99.30
2022-10-24T15:48:57.482Z,99.45
2022-10-24T15:51:01.444Z,100.00
2022-10-24T15:53:06.668Z,100.00
2022-10-24T15:55:16.996Z,99.76
2022-10-24T15:57:19.979Z,99.53
2022-10-24T15:59:26.526Z,100.00
2022-10-24T16:01:30.624Z,100.00
2022-10-24T16:03:35.961Z,100.00
2022-10-24T16:05:42.722Z,100.00
2022-10-24T16:07:47.042Z,100.00
2022-10-24T16:09:49.871Z,100.00
2022-10-24T16:11:52.530Z,100.00
2022-10-24T16:13:56.014Z,100.00
2022-10-24T16:15:58.658Z,100.00
2022-10-24T16:18:01.295Z,100.00
2022-10-24T16:20:04.159Z,100.00
2022-10-24T16:22:08.501Z,100.00
2022-10-24T16:24:14.187Z,100.00
2022-10-24T16:26:17.282Z,100.00
2022-10-24T16:28:23.567Z,100.00
2022-10-24T16:30:28.718Z,100.00
2022-10-24T16:32:31.352Z,100.00
2022-10-24T16:34:34.207Z,100.00
2022-10-24T16:36:37.013Z,100.00
2022-10-24T16:38:39.820Z,100.00
2022-10-24T16:40:47.281Z,100.00
2022-10-24T16:42:50.085Z,100.00
2022-10-24T16:44:52.840Z,100.00
2022-10-24T16:46:55.462Z,100.00
2022-10-24T16:48:58.206Z,100.00
2022-10-24T16:51:00.971Z,100.00
2022-10-24T16:53:06.775Z,100.00
2022-10-24T16:55:12.430Z,100.00
2022-10-24T16:57:16.515Z,100.00
2022-10-24T16:59:19.771Z,100.00
2022-10-24T17:01:23.165Z,100.00
2022-10-24T17:03:25.930Z,100.00
2022-10-24T17:05:29.392Z,100.00
2022-10-24T17:07:32.069Z,100.00
2022-10-24T17:09:35.034Z,100.00
2022-10-24T17:11:45.216Z,100.00
2022-10-24T17:13:50.461Z,100.00
2022-10-24T17:15:53.174Z,100.00
2022-10-24T17:17:55.786Z,100.00
2022-10-24T17:19:58.388Z,100.00
2022-10-24T17:22:01.387Z,100.00
2022-10-24T17:24:04.461Z,100.00
2022-10-24T17:26:15.302Z,100.00
2022-10-24T17:28:18.259Z,100.00
2022-10-24T17:30:24.090Z,100.00
2022-10-24T17:32:26.940Z,100.00
2022-10-24T17:34:29.931Z,100.00
2022-10-24T17:36:37.971Z,100.00
2022-10-24T17:38:45.037Z,100.00
2022-10-24T17:40:50.236Z,100.00
2022-10-24T17:42:53.223Z,100.00
2022-10-24T17:44:56.169Z,100.00
2022-10-24T17:47:00.745Z,100.00
2022-10-24T17:49:03.461Z,100.00
2022-10-24T17:51:06.277Z,100.00
2022-10-24T17:53:08.938Z,100.00
2022-10-24T17:55:41.058Z,100.00
2022-10-24T17:57:41.307Z,100.00
2022-10-24T17:59:43.928Z,100.00
2022-10-24T18:01:46.620Z,100.00
2022-10-24T18:03:50.788Z,100.00
2022-10-24T18:05:53.521Z,100.00
2022-10-24T18:07:57.813Z,100.00
2022-10-24T18:10:01.885Z,100.00
2022-10-24T18:12:04.949Z,100.00
2022-10-24T18:14:07.839Z,100.00
2022-10-24T18:16:13.094Z,100.00
2022-10-24T18:18:15.683Z,100.00
2022-10-24T18:20:20.336Z,100.00
2022-10-24T18:22:23.042Z,96.04
2022-10-24T18:24:25.658Z,94.23
2022-10-24T18:26:28.520Z,97.97
2022-10-24T18:28:31.264Z,100.00
2022-10-24T18:30:35.274Z,100.00
2022-10-24T18:32:38.336Z,100.00
2022-10-24T18:34:41.138Z,100.00
2022-10-24T18:36:45.183Z,100.00
2022-10-24T18:38:48.449Z,100.00
2022-10-24T18:40:51.606Z,100.00
2022-10-24T18:42:59.480Z,100.00
2022-10-24T18:45:03.588Z,100.00
2022-10-24T18:47:08.590Z,100.00
2022-10-24T18:49:11.881Z,100.00
2022-10-24T18:51:25.997Z,100.00
2022-10-24T18:53:34.164Z,100.00
2022-10-24T18:55:37.495Z,100.00
2022-10-24T18:57:40.308Z,100.00
2022-10-24T18:59:44.376Z,100.00
2022-10-24T19:01:54.836Z,100.00
2022-10-24T19:04:00.773Z,100.00
2022-10-24T19:06:15.982Z,100.00
2022-10-24T19:08:21.949Z,100.00
2022-10-24T19:10:28.128Z,100.00
2022-10-24T19:12:30.950Z,100.00
2022-10-24T19:14:33.990Z,100.00
2022-10-24T19:16:36.930Z,100.00
2022-10-24T19:18:39.599Z,100.00
2022-10-24T19:20:42.464Z,100.00
2022-10-24T19:22:45.785Z,100.00
2022-10-24T19:24:48.660Z,100.00
2022-10-24T19:26:52.709Z,100.00
2022-10-24T19:28:55.358Z,100.00
2022-10-24T19:30:59.079Z,100.00
2022-10-24T19:33:01.660Z,100.00
2022-10-24T19:35:04.647Z,100.00
2022-10-24T19:37:07.520Z,100.00
2022-10-24T19:39:10.403Z,100.00
2022-10-24T19:41:13.003Z,100.00
2022-10-24T19:43:16.948Z,100.00
2022-10-24T19:45:21.539Z,100.00
2022-10-24T19:47:27.721Z,100.00
2022-10-24T19:49:30.347Z,100.00
2022-10-24T19:51:32.969Z,100.00
2022-10-24T19:53:36.556Z,100.00
2022-10-24T19:55:40.250Z,100.00
2022-10-24T19:57:45.774Z,100.00
2022-10-24T19:59:50.050Z,100.00
2022-10-24T20:01:52.983Z,100.00
2022-10-24T20:03:55.988Z,100.00
2022-10-24T20:05:59.784Z,100.00
2022-10-24T20:08:02.594Z,100.00
2022-10-24T20:10:06.102Z,100.00
2022-10-24T20:12:09.084Z,100.00
2022-10-24T20:14:11.782Z,100.00
2022-10-24T20:16:15.786Z,100.00
2022-10-24T20:18:18.558Z,100.00
2022-10-24T20:20:21.220Z,100.00
2022-10-24T20:22:23.834Z,100.00
2022-10-24T20:24:27.397Z,100.00
2022-10-24T20:26:29.989Z,100.00
2022-10-24T20:28:35.336Z,100.00
2022-10-24T20:30:41.849Z,100.00
2022-10-24T20:32:45.875Z,100.00
2022-10-24T20:34:48.491Z,100.00
2022-10-24T20:36:51.196Z,100.00
2022-10-24T20:38:53.835Z,100.00
2022-10-24T20:41:02.155Z,100.00
2022-10-24T20:43:07.044Z,100.00
2022-10-24T20:45:10.308Z,100.00
2022-10-24T20:47:12.898Z,100.00
2022-10-24T20:49:16.930Z,100.00
2022-10-24T20:51:21.540Z,100.00
2022-10-24T20:53:24.186Z,100.00
2022-10-24T20:55:39.418Z,100.00
2022-10-24T20:57:45.895Z,100.00
2022-10-24T20:59:48.506Z,100.00
2022-10-24T21:01:51.223Z,100.00
2022-10-24T21:03:54.936Z,100.00
2022-10-24T21:05:58.893Z,100.00
2022-10-24T21:08:01.557Z,100.00
2022-10-24T21:10:05.042Z,100.00
2022-10-24T21:12:07.653Z,100.00
2022-10-24T21:14:13.686Z,100.00
2022-10-24T21:16:16.289Z,100.00
2022-10-24T21:18:18.890Z,100.00
2022-10-24T21:20:21.516Z,100.00
2022-10-24T21:22:25.464Z,100.00
2022-10-24T21:24:28.037Z,100.00
2022-10-24T21:26:30.949Z,100.00
2022-10-24T21:28:34.054Z,100.00
2022-10-24T21:30:36.728Z,100.00
2022-10-24T21:32:39.369Z,100.00
2022-10-24T21:34:41.961Z,100.00
2022-10-24T21:36:44.593Z,100.00
2022-10-24T21:38:50.027Z,100.00
2022-10-24T21:41:00.601Z,100.00
2022-10-24T21:43:03.226Z,100.00
2022-10-24T21:45:06.807Z,100.00
2022-10-24T21:47:09.424Z,100.00
2022-10-24T21:49:12.228Z,100.00
2022-10-24T21:51:17.001Z,100.00
2022-10-24T21:53:19.585Z,100.00
2022-10-24T21:55:23.525Z,100.00
2022-10-24T21:57:26.341Z,100.00
2022-10-24T21:59:29.190Z,100.00
2022-10-24T22:01:33.928Z,100.00
2022-10-24T22:03:36.625Z,100.00
2022-10-24T22:05:39.333Z,100.00
2022-10-24T22:07:43.908Z,100.00
2022-10-24T22:09:48.824Z,100.00
2022-10-24T22:11:54.403Z,100.00
2022-10-24T22:13:57.697Z,100.00
2022-10-24T22:16:00.762Z,100.00
2022-10-24T22:18:03.349Z,100.00
2022-10-24T22:20:06.756Z,100.00
2022-10-24T22:22:09.374Z,100.00
2022-10-24T22:24:14.113Z,100.00
2022-10-24T22:26:16.796Z,100.00
2022-10-24T22:28:21.033Z,100.00
2022-10-24T22:30:23.738Z,100.00
2022-10-24T22:34:29.724Z,100.00
2022-10-24T22:36:43.958Z,100.00
2022-10-24T22:38:47.106Z,100.00
2022-10-24T22:40:50.181Z,100.00
2022-10-24T22:42:53.677Z,100.00
2022-10-24T22:44:58.219Z,100.00
2022-10-24T22:47:17.466Z,100.00
2022-10-24T22:49:29.375Z,100.00
2022-10-24T22:51:32.547Z,100.00
2022-10-24T22:53:35.767Z,100.00
2022-10-24T22:55:46.759Z,100.00
2022-10-24T22:57:50.035Z,100.00
2022-10-24T22:59:52.981Z,100.00
2022-10-24T23:02:04.219Z,100.00
2022-10-24T23:04:20.432Z,100.00
2022-10-24T23:06:28.640Z,100.00
2022-10-24T23:08:36.904Z,100.00
2022-10-24T23:10:40.136Z,100.00
2022-10-24T23:12:43.299Z,100.00
2022-10-24T23:14:46.663Z,100.00
2022-10-24T23:16:54.146Z,100.00
2022-10-24T23:18:58.725Z,100.00
2022-10-24T23:21:12.216Z,100.00
2022-10-24T23:23:29.212Z,100.00
2022-10-24T23:25:33.108Z,100.00
2022-10-24T23:27:39.221Z,100.00
2022-10-24T23:29:44.527Z,100.00
2022-10-24T23:31:47.857Z,100.00
2022-10-24T23:33:51.113Z,100.00
2022-10-24T23:35:59.234Z,100.00
2022-10-24T23:38:02.309Z,100.00
2022-10-24T23:40:18.487Z,100.00
2022-10-24T23:42:21.640Z,100.00
2022-10-24T23:44:24.804Z,100.00
2022-10-24T23:46:32.615Z,100.00
2022-10-24T23:48:48.902Z,100.00
2022-10-24T23:51:00.849Z,100.00
2022-10-24T23:53:26.613Z,100.00
2022-10-24T23:55:30.087Z,100.00
2022-10-24T23:57:33.141Z,100.00
2022-10-24T23:59:35.725Z,100.00
